createdAt,value
2023-04-04T00:00:42.600Z,60.08
2023-04-04T00:03:10.873Z,60.69
2023-04-04T00:05:38.800Z,61.33
2023-04-04T00:08:07.286Z,60.28
2023-04-04T00:10:35.360Z,61.63
2023-04-04T00:13:05.564Z,61.42
2023-04-04T00:15:34.667Z,60.35
2023-04-04T00:18:02.876Z,61.85
2023-04-04T00:20:30.849Z,61.48
2023-04-04T00:23:00.612Z,62.55
2023-04-04T00:25:28.830Z,61.64
2023-04-04T00:28:00.537Z,61.98
2023-04-04T00:30:31.397Z,61.88
2023-04-04T00:32:59.391Z,61.61
2023-04-04T00:35:28.047Z,62.65
2023-04-04T00:37:56.317Z,62.04
2023-04-04T00:40:24.369Z,62.16
2023-04-04T00:42:52.757Z,63.06
2023-04-04T00:45:20.762Z,62.88
2023-04-04T00:47:51.574Z,63.03
2023-04-04T00:50:19.765Z,62.94
2023-04-04T00:52:47.727Z,63.18
2023-04-04T00:55:16.549Z,63.57
2023-04-04T00:57:44.505Z,63.92
2023-04-04T01:00:15.257Z,63.80
2023-04-04T01:02:43.346Z,63.37
2023-04-04T01:05:13.550Z,62.38
2023-04-04T01:07:42.876Z,62.88
2023-04-04T01:10:12.552Z,63.29
2023-04-04T01:12:42.665Z,64.61
2023-04-04T01:15:11.753Z,63.72
2023-04-04T01:17:39.855Z,63.95
2023-04-04T01:20:13.333Z,64.29
2023-04-04T01:22:53.905Z,63.34
2023-04-04T01:25:30.183Z,65.55
2023-04-04T01:28:00.363Z,64.12
2023-04-04T01:30:33.445Z,64.12
2023-04-04T01:33:07.158Z,65.42
2023-04-04T01:35:39.474Z,65.32
2023-04-04T01:38:16.853Z,64.26
2023-04-04T01:40:50.317Z,63.72
2023-04-04T01:43:19.584Z,64.16
2023-04-04T01:45:47.629Z,65.42
2023-04-04T01:48:16.716Z,66.13
2023-04-04T01:50:48.199Z,64.97
2023-04-04T01:53:16.631Z,64.84
2023-04-04T01:55:45.885Z,66.01
2023-04-04T01:58:16.406Z,65.43
2023-04-04T02:00:44.731Z,66.07
2023-04-04T02:03:12.626Z,66.26
2023-04-04T02:05:41.005Z,65.16
2023-04-04T02:08:10.189Z,66.25
2023-04-04T02:10:48.411Z,65.51
2023-04-04T02:13:16.851Z,66.71
2023-04-04T02:15:45.675Z,65.51
2023-04-04T02:18:14.179Z,65.06
2023-04-04T02:20:42.379Z,65.51
2023-04-04T02:23:10.308Z,65.75
2023-04-04T02:25:38.194Z,65.89
2023-04-04T02:28:07.465Z,65.34
2023-04-04T02:30:35.356Z,65.58
2023-04-04T02:33:04.887Z,65.15
2023-04-04T02:35:32.864Z,64.76
2023-04-04T02:38:00.756Z,66.17
2023-04-04T02:40:39.853Z,66.54
2023-04-04T02:43:09.536Z,65.18
2023-04-04T02:45:38.661Z,65.16
2023-04-04T02:48:14.695Z,65.54
2023-04-04T02:50:48.445Z,65.64
2023-04-04T02:53:17.323Z,64.56
2023-04-04T02:55:47.235Z,66.05
2023-04-04T02:58:17.281Z,67.49
2023-04-04T03:00:47.240Z,66.32
2023-04-04T03:03:15.774Z,66.30
2023-04-04T03:05:46.380Z,66.32
2023-04-04T03:08:14.231Z,65.70
2023-04-04T03:10:42.509Z,65.56
2023-04-04T03:13:10.520Z,65.76
2023-04-04T03:15:40.853Z,65.79
2023-04-04T03:18:09.541Z,66.38
2023-04-04T03:20:37.467Z,66.54
2023-04-04T03:23:05.457Z,66.31
2023-04-04T03:25:33.359Z,66.04
2023-04-04T03:28:09.622Z,66.99
2023-04-04T03:30:39.138Z,66.45
2023-04-04T03:33:08.732Z,67.18
2023-04-04T03:35:39.600Z,66.88
2023-04-04T03:38:07.728Z,66.40
2023-04-04T03:40:35.798Z,67.34
2023-04-04T03:43:08.684Z,67.58
2023-04-04T03:45:36.833Z,67.34
2023-04-04T03:48:06.524Z,68.06
2023-04-04T03:50:36.715Z,67.64
2023-04-04T03:53:04.674Z,66.83
2023-04-04T03:55:32.555Z,66.69
2023-04-04T03:58:01.012Z,67.02
2023-04-04T04:00:28.926Z,68.37
2023-04-04T04:02:57.254Z,67.70
2023-04-04T04:05:26.951Z,67.22
2023-04-04T04:07:54.820Z,68.42
2023-04-04T04:10:22.703Z,68.49
2023-04-04T04:12:50.581Z,67.49
2023-04-04T04:15:18.454Z,67.47
2023-04-04T04:17:47.595Z,67.06
2023-04-04T04:20:16.042Z,66.76
2023-04-04T04:22:51.467Z,66.90
2023-04-04T04:25:21.348Z,67.51
2023-04-04T04:28:11.305Z,67.51
2023-04-04T04:30:39.652Z,67.73
2023-04-04T04:33:08.305Z,66.87
2023-04-04T04:35:45.012Z,66.63
2023-04-04T04:38:14.421Z,67.45
2023-04-04T04:40:42.923Z,67.48
2023-04-04T04:43:17.930Z,67.75
2023-04-04T04:45:47.464Z,68.42
2023-04-04T04:48:17.064Z,67.96
2023-04-04T04:50:50.041Z,66.62
2023-04-04T04:53:29.369Z,68.46
2023-04-04T04:55:57.461Z,67.49
2023-04-04T04:58:26.358Z,66.86
2023-04-04T05:00:58.535Z,67.23
2023-04-04T05:03:35.071Z,67.56
2023-04-04T05:06:06.530Z,67.17
2023-04-04T05:08:37.246Z,65.99
2023-04-04T05:11:15.990Z,65.71
2023-04-04T05:13:44.938Z,64.44
2023-04-04T05:16:13.183Z,65.05
2023-04-04T05:18:43.882Z,64.65
2023-04-04T05:21:12.773Z,65.08
2023-04-04T05:23:41.981Z,64.89
2023-04-04T05:26:10.184Z,64.88
2023-04-04T05:28:41.067Z,65.31
2023-04-04T05:31:09.050Z,65.62
2023-04-04T05:33:38.374Z,64.62
2023-04-04T05:36:14.544Z,64.25
2023-04-04T05:38:49.519Z,65.15
2023-04-04T05:41:20.579Z,64.36
2023-04-04T05:43:49.545Z,64.24
2023-04-04T05:46:22.306Z,63.14
2023-04-04T05:48:53.124Z,63.81
2023-04-04T05:51:21.629Z,63.51
2023-04-04T05:54:11.176Z,63.93
2023-04-04T05:56:40.231Z,63.24
2023-04-04T05:59:16.199Z,63.08
2023-04-04T06:01:54.555Z,62.47
2023-04-04T06:04:22.733Z,63.19
2023-04-04T06:06:51.999Z,63.68
2023-04-04T06:09:22.985Z,62.41
2023-04-04T06:11:50.979Z,61.28
2023-04-04T06:14:19.078Z,59.96
2023-04-04T06:16:48.141Z,59.35
2023-04-04T06:19:16.827Z,58.33
2023-04-04T06:21:44.933Z,57.72
2023-04-04T06:24:14.407Z,54.08
2023-04-04T06:26:44.862Z,51.94
2023-04-04T06:29:13.674Z,53.43
2023-04-04T06:31:43.810Z,54.43
2023-04-04T06:34:19.154Z,50.35
2023-04-04T06:36:53.913Z,52.65
2023-04-04T06:39:24.650Z,53.34
2023-04-04T06:41:56.269Z,50.91
2023-04-04T06:44:28.389Z,50.96
2023-04-04T06:46:56.397Z,50.85
2023-04-04T06:49:25.983Z,51.31
2023-04-04T06:51:54.208Z,52.04
2023-04-04T06:54:22.425Z,51.65
2023-04-04T06:56:50.413Z,52.04
2023-04-04T06:59:19.731Z,52.21
2023-04-04T07:01:47.710Z,50.52
2023-04-04T07:04:15.640Z,50.59
2023-04-04T07:06:44.110Z,50.45
2023-04-04T07:09:26.040Z,50.53
2023-04-04T07:11:56.424Z,50.86
2023-04-04T07:14:25.990Z,49.19
2023-04-04T07:16:55.051Z,49.51
2023-04-04T07:19:24.493Z,48.92
2023-04-04T07:21:52.358Z,51.30
2023-04-04T07:24:20.241Z,53.11
2023-04-04T07:26:48.157Z,52.80
2023-04-04T07:29:16.112Z,49.42
2023-04-04T07:31:45.398Z,45.53
2023-04-04T07:34:13.297Z,43.20
2023-04-04T07:36:41.212Z,42.13
2023-04-04T07:39:09.050Z,43.65
2023-04-04T07:41:36.890Z,43.99
2023-04-04T07:44:04.778Z,44.09
2023-04-04T07:46:32.872Z,45.88
2023-04-04T07:49:02.524Z,41.47
2023-04-04T07:51:31.389Z,41.16
2023-04-04T07:53:59.270Z,37.79
2023-04-04T07:56:27.137Z,36.52
2023-04-04T07:58:54.979Z,37.99
2023-04-04T08:01:22.839Z,37.84
2023-04-04T08:03:53.307Z,37.76
2023-04-04T08:06:22.782Z,38.28
2023-04-04T08:08:50.759Z,38.35
2023-04-04T08:11:18.626Z,39.33
2023-04-04T08:13:46.815Z,38.84
2023-04-04T08:16:14.728Z,37.56
2023-04-04T08:18:42.944Z,39.70
2023-04-04T08:21:10.822Z,38.53
2023-04-04T08:23:41.341Z,38.55
2023-04-04T08:26:09.243Z,36.23
2023-04-04T08:28:37.158Z,37.04
2023-04-04T08:31:05.707Z,36.31
2023-04-04T08:33:44.587Z,37.62
2023-04-04T08:36:14.830Z,39.25
2023-04-04T08:38:44.701Z,38.35
2023-04-04T08:41:13.162Z,35.79
2023-04-04T08:43:46.376Z,34.82
2023-04-04T08:46:16.568Z,35.71
2023-04-04T08:48:47.381Z,36.16
2023-04-04T08:51:17.059Z,35.44
2023-04-04T08:53:46.923Z,37.57
2023-04-04T08:56:15.511Z,35.78
2023-04-04T08:58:43.448Z,35.46
2023-04-04T09:01:11.792Z,36.00
2023-04-04T09:03:40.144Z,34.60
2023-04-04T09:06:09.120Z,34.55
2023-04-04T09:08:37.360Z,33.73
2023-04-04T09:11:07.418Z,34.42
2023-04-04T09:13:37.566Z,32.42
2023-04-04T09:16:07.156Z,36.41
2023-04-04T09:18:35.078Z,35.01
2023-04-04T09:21:10.677Z,33.06
2023-04-04T09:23:38.902Z,35.76
2023-04-04T09:26:08.241Z,38.36
2023-04-04T09:28:37.272Z,40.93
2023-04-04T09:31:09.998Z,39.36
2023-04-04T09:33:40.005Z,37.82
2023-04-04T09:36:10.355Z,41.05
2023-04-04T09:38:40.576Z,40.43
2023-04-04T09:41:10.963Z,36.79
2023-04-04T09:43:40.980Z,35.99
2023-04-04T09:46:08.992Z,33.69
2023-04-04T09:48:37.549Z,33.75
2023-04-04T09:51:06.896Z,31.84
2023-04-04T09:53:39.850Z,31.53
2023-04-04T09:56:09.962Z,31.51
2023-04-04T09:58:44.247Z,31.26
2023-04-04T10:01:19.203Z,32.83
2023-04-04T10:03:53.539Z,35.92
2023-04-04T10:06:22.545Z,32.43
2023-04-04T10:08:51.154Z,33.45
2023-04-04T10:11:32.467Z,33.15
2023-04-04T10:14:02.696Z,30.61
2023-04-04T10:16:33.227Z,26.80
2023-04-04T10:19:03.205Z,27.44
2023-04-04T10:21:31.398Z,29.00
2023-04-04T10:24:00.296Z,30.94
2023-04-04T10:26:29.513Z,29.49
2023-04-04T10:28:58.108Z,29.08
2023-04-04T10:31:27.440Z,32.02
2023-04-04T10:34:11.371Z,29.65
2023-04-04T10:36:45.447Z,30.04
2023-04-04T10:39:16.433Z,31.29
2023-04-04T10:41:51.008Z,32.89
2023-04-04T10:44:25.253Z,33.74
2023-04-04T10:46:55.246Z,33.12
2023-04-04T10:49:23.841Z,33.25
2023-04-04T10:51:56.246Z,33.45
2023-04-04T10:54:27.600Z,34.32
2023-04-04T10:57:00.840Z,35.54
2023-04-04T10:59:28.718Z,33.42
2023-04-04T11:01:58.771Z,33.20
2023-04-04T11:04:34.891Z,31.66
2023-04-04T11:07:13.710Z,30.05
2023-04-04T11:09:52.742Z,29.48
2023-04-04T11:12:29.202Z,28.17
2023-04-04T11:14:59.033Z,29.72
2023-04-04T11:17:51.705Z,31.64
2023-04-04T11:20:22.404Z,30.17
2023-04-04T11:23:04.555Z,30.75
2023-04-04T11:25:34.053Z,30.67
2023-04-04T11:28:08.245Z,31.86
2023-04-04T11:30:44.882Z,32.72
2023-04-04T11:33:13.954Z,32.29
2023-04-04T11:35:46.996Z,34.49
2023-04-04T11:38:16.161Z,32.99
2023-04-04T11:40:53.167Z,31.89
2023-04-04T11:43:22.488Z,30.37
2023-04-04T11:45:50.791Z,30.91
2023-04-04T11:48:21.770Z,31.53
2023-04-04T11:50:53.079Z,32.09
2023-04-04T11:53:21.193Z,31.38
2023-04-04T11:55:53.011Z,30.68
2023-04-04T11:58:23.225Z,31.92
2023-04-04T12:00:51.126Z,32.56
2023-04-04T12:03:19.360Z,32.08
2023-04-04T12:05:47.792Z,30.49
2023-04-04T12:08:18.066Z,31.30
2023-04-04T12:10:46.277Z,32.51
2023-04-04T12:13:14.187Z,34.43
2023-04-04T12:15:44.064Z,34.28
2023-04-04T12:18:22.083Z,32.66
2023-04-04T12:20:50.057Z,32.90
2023-04-04T12:23:17.943Z,33.38
2023-04-04T12:25:49.854Z,34.60
2023-04-04T12:28:18.325Z,34.88
2023-04-04T12:30:47.693Z,33.39
2023-04-04T12:33:15.695Z,30.40
2023-04-04T12:35:52.516Z,32.07
2023-04-04T12:38:20.466Z,35.03
2023-04-04T12:40:48.344Z,33.56
2023-04-04T12:43:18.657Z,32.92
2023-04-04T12:45:50.811Z,33.20
2023-04-04T12:48:19.027Z,32.91
2023-04-04T12:50:54.609Z,34.06
2023-04-04T12:55:55.813Z,31.46
2023-04-04T12:58:25.518Z,30.80
2023-04-04T13:00:56.876Z,32.29
2023-04-04T13:03:26.257Z,33.45
2023-04-04T13:05:54.211Z,33.85
2023-04-04T13:08:22.344Z,32.05
2023-04-04T13:11:02.345Z,33.57
2023-04-04T13:13:35.333Z,31.84
2023-04-04T13:16:06.296Z,31.98
2023-04-04T13:18:37.447Z,32.90
2023-04-04T13:21:07.929Z,34.33
2023-04-04T13:23:37.499Z,33.67
2023-04-04T13:26:05.814Z,32.07
2023-04-04T13:28:33.872Z,32.13
2023-04-04T13:31:05.044Z,30.98
2023-04-04T13:33:33.351Z,31.08
2023-04-04T13:36:01.710Z,29.58
2023-04-04T13:38:30.483Z,32.16
2023-04-04T13:40:59.325Z,31.78
2023-04-04T13:43:27.549Z,31.72
2023-04-04T13:45:55.972Z,31.83
2023-04-04T13:48:25.460Z,34.26
2023-04-04T13:50:55.332Z,34.17
2023-04-04T13:53:23.513Z,34.07
2023-04-04T13:56:13.961Z,32.41
2023-04-04T13:58:39.345Z,30.76
2023-04-04T14:01:08.259Z,31.81
2023-04-04T14:03:37.796Z,30.39
2023-04-04T14:06:10.376Z,32.93
2023-04-04T14:08:39.071Z,29.47
2023-04-04T14:11:06.990Z,33.19
2023-04-04T14:13:36.197Z,33.44
2023-04-04T14:16:04.256Z,32.79
2023-04-04T14:18:32.178Z,32.02
2023-04-04T14:21:01.495Z,31.90
2023-04-04T14:23:30.623Z,31.56
2023-04-04T14:25:58.483Z,33.93
2023-04-04T14:28:26.433Z,30.41
2023-04-04T14:30:54.328Z,32.23
2023-04-04T14:33:22.293Z,31.20
2023-04-04T14:35:51.002Z,32.51
2023-04-04T14:38:20.236Z,31.12
2023-04-04T14:40:48.936Z,29.62
2023-04-04T14:43:17.082Z,32.50
2023-04-04T14:45:44.963Z,31.25
2023-04-04T14:48:12.852Z,31.45
2023-04-04T14:50:42.818Z,31.88
2023-04-04T14:53:10.753Z,31.22
2023-04-04T14:55:40.222Z,30.45
2023-04-04T14:58:08.290Z,30.84
2023-04-04T15:00:36.281Z,30.50
2023-04-04T15:03:07.175Z,28.82
2023-04-04T15:05:35.359Z,32.39
2023-04-04T15:08:03.245Z,28.64
2023-04-04T15:10:31.543Z,28.96
2023-04-04T15:13:00.942Z,28.44
2023-04-04T15:15:30.014Z,28.96
2023-04-04T15:17:57.969Z,28.70
2023-04-04T15:20:25.853Z,28.38
2023-04-04T15:22:54.489Z,29.02
2023-04-04T15:25:22.411Z,28.06
2023-04-04T15:27:50.252Z,29.31
2023-04-04T15:30:19.689Z,28.99
2023-04-04T15:32:47.578Z,31.30
2023-04-04T15:35:20.466Z,33.28
2023-04-04T15:37:49.104Z,33.08
2023-04-04T15:40:17.733Z,32.43
2023-04-04T15:42:46.390Z,33.11
2023-04-04T15:45:15.374Z,32.39
2023-04-04T15:47:45.118Z,33.16
2023-04-04T15:50:13.299Z,34.52
2023-04-04T15:52:41.712Z,32.52
2023-04-04T15:55:13.186Z,32.33
2023-04-04T15:57:44.466Z,32.96
2023-04-04T16:00:14.602Z,33.79
2023-04-04T16:02:44.134Z,34.45
2023-04-04T16:05:12.262Z,32.73
2023-04-04T16:07:40.133Z,32.22
2023-04-04T16:10:09.044Z,33.31
2023-04-04T16:12:36.972Z,32.20
2023-04-04T16:15:06.952Z,34.04
2023-04-04T16:17:35.387Z,34.59
2023-04-04T16:20:06.297Z,34.62
2023-04-04T16:22:34.258Z,35.36
2023-04-04T16:25:02.112Z,36.29
2023-04-04T16:27:30.049Z,36.72
2023-04-04T16:29:58.002Z,34.92
2023-04-04T16:32:25.923Z,35.35
2023-04-04T16:34:54.136Z,36.49
2023-04-04T16:37:23.417Z,37.03
2023-04-04T16:39:52.068Z,35.82
2023-04-04T16:42:20.297Z,35.74
2023-04-04T16:44:48.123Z,37.63
2023-04-04T16:47:16.209Z,36.41
2023-04-04T16:49:44.081Z,37.45
2023-04-04T16:52:11.941Z,37.59
2023-04-04T16:54:41.529Z,37.01
2023-04-04T16:57:09.917Z,37.78
2023-04-04T16:59:37.827Z,38.80
2023-04-04T17:02:09.190Z,36.03
2023-04-04T17:04:41.130Z,36.66
2023-04-04T17:07:10.302Z,36.90
2023-04-04T17:09:38.468Z,37.06
2023-04-04T17:12:08.139Z,36.72
2023-04-04T17:14:36.600Z,36.88
2023-04-04T17:17:05.483Z,35.78
2023-04-04T17:19:35.042Z,39.30
2023-04-04T17:22:03.451Z,39.04
2023-04-04T17:24:31.358Z,37.81
2023-04-04T17:26:59.250Z,39.16
2023-04-04T17:29:28.832Z,38.92
2023-04-04T17:31:57.967Z,39.68
2023-04-04T17:34:26.451Z,37.57
2023-04-04T17:36:54.735Z,38.09
2023-04-04T17:39:22.746Z,40.42
2023-04-04T17:41:52.112Z,40.00
2023-04-04T17:44:21.614Z,37.68
2023-04-04T17:46:50.853Z,37.31
2023-04-04T17:49:20.303Z,37.82
2023-04-04T17:51:48.882Z,37.46
2023-04-04T17:54:16.951Z,38.30
2023-04-04T17:56:46.895Z,38.46
2023-04-04T17:59:16.565Z,38.61
2023-04-04T18:01:45.318Z,39.42
2023-04-04T18:04:14.604Z,39.07
2023-04-04T18:06:42.711Z,38.88
2023-04-04T18:09:11.118Z,38.50
2023-04-04T18:11:39.911Z,40.26
2023-04-04T18:14:08.418Z,39.99
2023-04-04T18:16:40.115Z,39.23
2023-04-04T18:19:08.683Z,41.03
2023-04-04T18:21:38.064Z,41.23
2023-04-04T18:24:07.384Z,41.04
2023-04-04T18:26:35.333Z,41.28
2023-04-04T18:29:03.414Z,42.31
2023-04-04T18:31:31.540Z,41.64
2023-04-04T18:33:59.442Z,41.81
2023-04-04T18:36:27.979Z,42.40
2023-04-04T18:38:57.231Z,42.80
2023-04-04T18:41:25.210Z,41.89
2023-04-04T18:43:53.177Z,42.23
2023-04-04T18:46:21.091Z,42.74
2023-04-04T18:48:49.016Z,43.04
2023-04-04T18:51:17.469Z,42.71
2023-04-04T18:53:45.405Z,43.40
2023-04-04T18:56:14.640Z,43.42
2023-04-04T18:58:42.902Z,42.62
2023-04-04T19:01:12.784Z,41.62
2023-04-04T19:03:43.111Z,43.31
2023-04-04T19:06:13.279Z,42.05
2023-04-04T19:08:41.974Z,42.09
2023-04-04T19:11:10.276Z,42.99
2023-04-04T19:13:39.634Z,41.95
2023-04-04T19:16:07.571Z,43.16
2023-04-04T19:18:36.068Z,42.14
2023-04-04T19:21:05.566Z,42.58
2023-04-04T19:23:33.441Z,43.74
2023-04-04T19:26:02.247Z,43.57
2023-04-04T19:28:30.155Z,43.00
2023-04-04T19:31:00.750Z,43.10
2023-04-04T19:33:28.771Z,42.55
2023-04-04T19:35:59.107Z,42.67
2023-04-04T19:38:28.685Z,43.03
2023-04-04T19:40:59.442Z,42.18
2023-04-04T19:43:28.247Z,43.44
2023-04-04T19:45:57.957Z,43.14
2023-04-04T19:48:44.703Z,42.97
2023-04-04T19:51:42.645Z,42.16
2023-04-04T19:54:16.116Z,43.03
2023-04-04T19:56:46.715Z,44.45
2023-04-04T19:59:55.651Z,46.34
2023-04-04T20:02:54.197Z,45.34
2023-04-04T20:06:04.310Z,44.92
2023-04-04T20:08:41.168Z,45.56
2023-04-04T20:11:09.099Z,44.09
2023-04-04T20:13:38.104Z,44.77
2023-04-04T20:16:08.839Z,45.37
2023-04-04T20:18:38.065Z,46.52
2023-04-04T20:21:11.308Z,45.76
2023-04-04T20:23:45.788Z,44.77
2023-04-04T20:26:16.245Z,44.42
2023-04-04T20:28:47.577Z,43.80
2023-04-04T20:31:18.313Z,43.59
2023-04-04T20:33:46.278Z,43.99
2023-04-04T20:36:32.638Z,44.72
2023-04-04T20:39:01.888Z,45.05
2023-04-04T20:41:29.696Z,44.62
2023-04-04T20:43:58.964Z,45.62
2023-04-04T20:46:28.420Z,43.12
2023-04-04T20:48:57.298Z,43.83
2023-04-04T20:51:28.219Z,42.71
2023-04-04T20:53:58.122Z,44.20
2023-04-04T20:56:56.624Z,43.50
2023-04-04T20:59:38.313Z,42.67
2023-04-04T21:02:16.650Z,42.07
2023-04-04T21:04:46.116Z,42.31
2023-04-04T21:07:35.828Z,41.79
2023-04-04T21:10:04.142Z,40.71
2023-04-04T21:12:33.590Z,42.38
2023-04-04T21:15:01.602Z,42.96
2023-04-04T21:17:29.526Z,43.09
2023-04-04T21:19:58.634Z,44.02
2023-04-04T21:22:26.507Z,46.80
2023-04-04T21:24:54.397Z,44.27
2023-04-04T21:27:35.971Z,43.83
2023-04-04T21:30:09.343Z,43.24
2023-04-04T21:32:37.371Z,43.63
2023-04-04T21:35:10.732Z,44.34
2023-04-04T21:37:39.448Z,43.58
2023-04-04T21:40:09.707Z,44.09
2023-04-04T21:42:38.893Z,46.01
2023-04-04T21:45:08.055Z,43.67
2023-04-04T21:47:35.914Z,43.85
2023-04-04T21:50:03.848Z,45.03
2023-04-04T21:52:31.745Z,44.33
2023-04-04T21:54:59.577Z,43.80
2023-04-04T21:57:27.494Z,43.53
2023-04-04T21:59:56.689Z,44.82
2023-04-04T22:02:24.597Z,44.18
2023-04-04T22:04:52.557Z,43.70
2023-04-04T22:07:20.483Z,43.19
2023-04-04T22:09:48.278Z,43.73
2023-04-04T22:12:16.165Z,43.65
2023-04-04T22:14:45.406Z,44.93
2023-04-04T22:17:22.870Z,44.07
2023-04-04T22:19:58.892Z,43.18
2023-04-04T22:22:29.747Z,46.10
2023-04-04T22:25:07.084Z,47.69
2023-04-04T22:27:38.005Z,47.47
2023-04-04T22:30:07.045Z,44.55
2023-04-04T22:32:39.125Z,44.39
2023-04-04T22:35:07.780Z,45.50
2023-04-04T22:37:35.611Z,45.66
2023-04-04T22:40:05.286Z,46.86
2023-04-04T22:42:33.145Z,45.24
2023-04-04T22:45:00.974Z,46.79
2023-04-04T22:47:29.419Z,47.72
2023-04-04T22:50:04.623Z,45.62
2023-04-04T22:52:32.986Z,47.34
2023-04-04T22:55:00.929Z,48.40
2023-04-04T22:57:28.770Z,50.13
2023-04-04T22:59:56.623Z,50.64
2023-04-04T23:02:24.491Z,48.20
2023-04-04T23:04:52.446Z,49.35
2023-04-04T23:07:21.904Z,46.80
2023-04-04T23:09:49.799Z,46.05
2023-04-04T23:12:17.632Z,47.81
2023-04-04T23:14:47.275Z,45.82
2023-04-04T23:17:15.117Z,47.14
2023-04-04T23:19:42.940Z,48.31
2023-04-04T23:22:11.474Z,50.66
2023-04-04T23:24:41.643Z,47.99
2023-04-04T23:27:09.483Z,47.67
2023-04-04T23:29:37.389Z,46.61
2023-04-04T23:32:05.844Z,47.32
2023-04-04T23:34:33.667Z,48.14
2023-04-04T23:37:01.492Z,49.72
2023-04-04T23:39:29.789Z,49.50
2023-04-04T23:41:59.758Z,49.30
2023-04-04T23:44:27.716Z,49.23
2023-04-04T23:46:55.772Z,49.41
2023-04-04T23:49:23.928Z,49.25
2023-04-04T23:51:51.807Z,49.18
2023-04-04T23:54:19.698Z,50.86
2023-04-04T23:56:47.506Z,49.57
2023-04-04T23:59:17.045Z,49.80
